createdAt,value
2019-02-06T00:01:18.244Z,10.50
2019-02-06T00:03:47.265Z,11.90
2019-02-06T00:06:16.262Z,12.07
2019-02-06T00:08:45.232Z,11.77
2019-02-06T00:11:14.462Z,11.00
2019-02-06T00:13:43.521Z,10.97
2019-02-06T00:16:12.722Z,11.30
2019-02-06T00:18:41.792Z,10.43
2019-02-06T00:21:10.831Z,10.87
2019-02-06T00:23:39.808Z,10.73
2019-02-06T00:26:08.725Z,10.60
2019-02-06T00:28:37.798Z,10.63
2019-02-06T00:31:06.829Z,11.37
2019-02-06T00:33:35.983Z,11.60
2019-02-06T00:36:05.495Z,10.90
2019-02-06T00:38:35.183Z,10.17
2019-02-06T00:41:04.343Z,10.80
2019-02-06T00:43:33.490Z,11.00
2019-02-06T00:46:02.745Z,10.40
2019-02-06T00:48:31.743Z,10.23
2019-02-06T00:51:10.130Z,9.93
2019-02-06T00:53:39.123Z,10.90
2019-02-06T00:56:08.287Z,10.43
2019-02-06T00:58:37.393Z,10.30
2019-02-06T01:01:06.830Z,10.80
2019-02-06T01:03:35.800Z,10.57
2019-02-06T01:06:05.125Z,10.03
2019-02-06T01:08:34.149Z,9.77
2019-02-06T01:11:03.549Z,9.37
2019-02-06T01:13:32.633Z,10.03
2019-02-06T01:16:01.495Z,9.67
2019-02-06T01:18:30.395Z,10.17
2019-02-06T01:20:59.256Z,10.40
2019-02-06T01:23:28.256Z,10.27
2019-02-06T01:25:57.257Z,10.40
2019-02-06T01:28:26.263Z,10.10
2019-02-06T01:31:07.649Z,9.83
2019-02-06T01:33:36.440Z,9.40
2019-02-06T01:36:05.547Z,9.60
2019-02-06T01:38:34.389Z,10.17
2019-02-06T01:41:03.643Z,10.43
2019-02-06T01:43:32.521Z,9.90
2019-02-06T01:46:01.475Z,9.47
2019-02-06T01:48:30.429Z,10.33
2019-02-06T01:50:59.321Z,9.23
2019-02-06T01:53:28.223Z,9.63
2019-02-06T01:55:57.175Z,9.80
2019-02-06T01:58:26.091Z,9.40
2019-02-06T02:00:55.003Z,9.80
2019-02-06T02:03:23.959Z,9.73
2019-02-06T02:06:01.836Z,9.03
2019-02-06T02:08:23.954Z,9.73
2019-02-06T02:10:53.081Z,8.97
2019-02-06T02:13:22.142Z,10.03
2019-02-06T02:15:51.075Z,9.37
2019-02-06T02:18:19.977Z,9.80
2019-02-06T02:20:48.886Z,9.47
2019-02-06T02:23:17.861Z,10.30
2019-02-06T02:25:47.384Z,10.10
2019-02-06T02:28:16.552Z,9.73
2019-02-06T02:30:48.687Z,9.80
2019-02-06T02:33:17.690Z,8.90
2019-02-06T02:35:46.741Z,10.93
2019-02-06T02:38:15.640Z,10.83
2019-02-06T02:40:44.502Z,11.30
2019-02-06T02:43:13.592Z,8.87
2019-02-06T02:45:42.692Z,10.10
2019-02-06T02:48:11.687Z,11.57
2019-02-06T02:50:40.605Z,10.20
2019-02-06T02:53:09.755Z,9.73
2019-02-06T02:55:38.802Z,10.07
2019-02-06T02:58:08.407Z,9.57
2019-02-06T03:01:05.364Z,9.50
2019-02-06T03:03:40.796Z,10.20
2019-02-06T03:06:10.019Z,11.20
2019-02-06T03:08:39.008Z,11.60
2019-02-06T03:11:08.168Z,11.03
2019-02-06T03:13:37.054Z,11.13
2019-02-06T03:16:05.971Z,11.83
2019-02-06T03:18:35.044Z,11.70
2019-02-06T03:21:04.023Z,11.00
2019-02-06T03:23:32.908Z,11.33
2019-02-06T03:26:01.927Z,11.80
2019-02-06T03:28:30.918Z,10.90
2019-02-06T03:30:59.876Z,12.90
2019-02-06T03:33:28.972Z,13.30
2019-02-06T03:35:57.963Z,13.10
2019-02-06T03:38:26.946Z,13.03
2019-02-06T03:40:56.156Z,13.17
2019-02-06T03:43:25.046Z,12.10
2019-02-06T03:45:53.961Z,13.10
2019-02-06T03:48:22.995Z,12.40
2019-02-06T03:50:51.966Z,13.47
2019-02-06T03:53:20.959Z,13.13
2019-02-06T03:55:49.859Z,12.10
2019-02-06T03:58:18.774Z,14.10
2019-02-06T04:00:47.728Z,14.33
2019-02-06T04:03:17.009Z,12.97
2019-02-06T04:05:46.015Z,15.83
2019-02-06T04:08:14.950Z,15.07
2019-02-06T04:10:44.062Z,15.17
2019-02-06T04:13:12.982Z,16.23
2019-02-06T04:15:41.936Z,16.27
2019-02-06T04:18:10.928Z,16.23
2019-02-06T04:20:39.812Z,19.20
2019-02-06T04:23:08.796Z,17.43
2019-02-06T04:25:37.823Z,17.90
2019-02-06T04:28:06.668Z,19.30
2019-02-06T04:30:35.525Z,19.27
2019-02-06T04:33:04.429Z,19.10
2019-02-06T04:35:33.264Z,20.03
2019-02-06T04:38:02.165Z,20.70
2019-02-06T04:40:31.338Z,20.90
2019-02-06T04:43:00.134Z,19.73
2019-02-06T04:45:29.057Z,21.83
2019-02-06T04:47:57.951Z,21.47
2019-02-06T04:50:26.882Z,21.53
2019-02-06T04:52:55.760Z,20.13
2019-02-06T04:55:24.782Z,21.17
2019-02-06T04:57:53.725Z,20.57
2019-02-06T05:00:24.436Z,22.13
2019-02-06T05:02:53.503Z,21.70
2019-02-06T05:05:22.403Z,20.80
2019-02-06T05:07:51.362Z,21.70
2019-02-06T05:10:20.226Z,22.00
2019-02-06T05:12:49.340Z,22.58
2019-02-06T05:15:18.828Z,21.60
2019-02-06T05:17:47.822Z,20.97
2019-02-06T05:20:28.955Z,23.47
2019-02-06T05:22:57.934Z,23.93
2019-02-06T05:25:27.313Z,23.33
2019-02-06T05:27:56.391Z,25.08
2019-02-06T05:30:25.225Z,23.32
2019-02-06T05:32:54.231Z,24.50
2019-02-06T05:35:23.530Z,23.70
2019-02-06T05:37:52.533Z,23.00
2019-02-06T05:40:21.453Z,23.33
2019-02-06T05:42:52.753Z,24.10
2019-02-06T05:45:21.189Z,24.73
2019-02-06T05:47:50.079Z,23.50
2019-02-06T05:50:19.370Z,25.80
2019-02-06T05:52:48.275Z,24.53
2019-02-06T05:55:17.553Z,26.27
2019-02-06T05:57:47.362Z,26.00
2019-02-06T06:00:19.633Z,28.10
2019-02-06T06:02:48.575Z,27.63
2019-02-06T06:05:17.531Z,26.43
2019-02-06T06:07:46.542Z,28.03
2019-02-06T06:10:16.291Z,28.57
2019-02-06T06:12:45.490Z,28.67
2019-02-06T06:15:15.617Z,28.62
2019-02-06T06:17:44.629Z,28.92
2019-02-06T06:20:14.505Z,30.05
2019-02-06T06:22:43.477Z,28.00
2019-02-06T06:25:13.259Z,29.47
2019-02-06T06:27:42.301Z,29.67
2019-02-06T06:30:13.583Z,29.63
2019-02-06T06:32:42.486Z,30.17
2019-02-06T06:35:11.815Z,29.90
2019-02-06T06:37:41.729Z,28.63
2019-02-06T06:40:13.746Z,31.50
2019-02-06T06:42:43.043Z,29.70
2019-02-06T06:45:14.282Z,30.52
2019-02-06T06:47:43.281Z,31.97
2019-02-06T06:50:14.665Z,31.77
2019-02-06T06:52:43.762Z,32.15
2019-02-06T06:55:13.588Z,31.77
2019-02-06T06:57:42.897Z,31.65
2019-02-06T07:00:17.764Z,32.00
2019-02-06T07:02:46.739Z,32.70
2019-02-06T07:05:15.801Z,32.80
2019-02-06T07:07:44.642Z,32.23
2019-02-06T07:10:14.281Z,32.28
2019-02-06T07:12:43.595Z,31.23
2019-02-06T07:15:15.275Z,34.10
2019-02-06T07:17:44.221Z,30.57
2019-02-06T07:20:14.409Z,30.00
2019-02-06T07:22:43.311Z,30.32
2019-02-06T07:25:12.840Z,30.55
2019-02-06T07:27:41.783Z,30.50
2019-02-06T07:30:23.406Z,28.73
2019-02-06T07:32:52.386Z,30.07
2019-02-06T07:35:21.319Z,29.03
2019-02-06T07:37:50.495Z,28.60
2019-02-06T07:40:19.689Z,28.00
2019-02-06T07:42:48.699Z,28.17
2019-02-06T07:45:17.828Z,30.10
2019-02-06T07:47:47.779Z,28.00
2019-02-06T07:50:20.111Z,29.12
2019-02-06T07:52:49.148Z,29.67
2019-02-06T07:55:18.593Z,28.77
2019-02-06T07:57:47.736Z,28.57
2019-02-06T08:00:16.765Z,27.82
2019-02-06T08:02:45.879Z,28.90
2019-02-06T08:05:16.328Z,28.57
2019-02-06T08:07:45.634Z,27.90
2019-02-06T08:10:20.299Z,27.53
2019-02-06T08:12:49.384Z,28.20
2019-02-06T08:15:18.570Z,28.67
2019-02-06T08:17:47.786Z,28.20
2019-02-06T08:20:17.937Z,27.10
2019-02-06T08:22:47.040Z,27.98
2019-02-06T08:25:16.421Z,26.07
2019-02-06T08:27:45.446Z,27.80
2019-02-06T08:30:28.816Z,25.70
2019-02-06T08:32:57.932Z,27.67
2019-02-06T08:35:26.900Z,26.33
2019-02-06T08:37:55.903Z,27.30
2019-02-06T08:40:26.190Z,26.12
2019-02-06T08:42:55.388Z,27.07
2019-02-06T08:45:24.848Z,26.77
2019-02-06T08:47:53.929Z,27.40
2019-02-06T08:50:23.134Z,26.80
2019-02-06T08:52:52.268Z,26.63
2019-02-06T08:55:22.944Z,28.47
2019-02-06T08:57:52.096Z,24.83
2019-02-06T09:00:23.736Z,25.20
2019-02-06T09:02:52.858Z,25.90
2019-02-06T09:05:21.806Z,26.00
2019-02-06T09:07:50.796Z,25.00
2019-02-06T09:10:21.304Z,24.73
2019-02-06T09:12:50.503Z,25.20
2019-02-06T09:15:19.572Z,25.73
2019-02-06T09:17:48.603Z,23.57
2019-02-06T09:20:22.624Z,23.23
2019-02-06T09:22:51.846Z,23.10
2019-02-06T09:25:21.768Z,22.03
2019-02-06T09:27:50.890Z,22.37
2019-02-06T09:30:22.355Z,20.60
2019-02-06T09:32:51.182Z,21.50
2019-02-06T09:35:20.433Z,21.70
2019-02-06T09:37:49.399Z,20.20
2019-02-06T09:40:19.897Z,20.80
2019-02-06T09:42:48.844Z,20.80
2019-02-06T09:45:17.903Z,22.10
2019-02-06T09:47:46.900Z,20.97
2019-02-06T09:50:21.426Z,20.83
2019-02-06T09:52:50.490Z,22.43
2019-02-06T09:55:19.461Z,22.40
2019-02-06T09:57:48.453Z,21.40
2019-02-06T10:00:20.235Z,21.20
2019-02-06T10:02:49.186Z,21.77
2019-02-06T10:05:18.255Z,22.67
2019-02-06T10:07:47.229Z,22.80
2019-02-06T10:10:18.265Z,21.70
2019-02-06T10:12:47.250Z,21.87
2019-02-06T10:15:19.825Z,21.60
2019-02-06T10:17:48.981Z,20.40
2019-02-06T10:20:18.744Z,19.30
2019-02-06T10:22:47.856Z,18.13
2019-02-06T10:25:16.921Z,20.03
2019-02-06T10:27:45.891Z,19.00
2019-02-06T10:30:23.037Z,20.07
2019-02-06T10:32:52.039Z,19.40
2019-02-06T10:35:21.217Z,17.20
2019-02-06T10:37:50.124Z,17.43
2019-02-06T10:40:19.136Z,18.10
2019-02-06T10:42:48.181Z,18.50
2019-02-06T10:45:17.399Z,17.30
2019-02-06T10:47:46.432Z,17.07
2019-02-06T10:50:18.264Z,17.23
2019-02-06T10:52:48.295Z,17.73
2019-02-06T10:55:17.692Z,15.90
2019-02-06T10:57:46.876Z,15.40
2019-02-06T11:00:22.379Z,15.97
2019-02-06T11:02:51.447Z,14.10
2019-02-06T11:05:20.436Z,15.13
2019-02-06T11:07:49.379Z,13.60
2019-02-06T11:10:18.894Z,15.60
2019-02-06T11:12:47.870Z,15.80
2019-02-06T11:15:17.044Z,13.97
2019-02-06T11:17:46.164Z,15.03
2019-02-06T11:20:17.129Z,15.13
2019-02-06T11:22:46.011Z,14.27
2019-02-06T11:25:15.248Z,15.17
2019-02-06T11:27:44.368Z,12.70
2019-02-06T11:30:16.540Z,13.40
2019-02-06T11:32:45.489Z,11.83
2019-02-06T11:35:14.746Z,12.63
2019-02-06T11:37:43.809Z,11.73
2019-02-06T11:40:15.462Z,11.90
2019-02-06T11:42:44.391Z,10.93
2019-02-06T11:45:15.212Z,11.07
2019-02-06T11:47:44.730Z,10.67
2019-02-06T11:50:17.372Z,11.70
2019-02-06T11:52:46.788Z,10.53
2019-02-06T11:55:17.788Z,11.40
2019-02-06T11:57:46.823Z,11.43
2019-02-06T12:00:22.156Z,11.77
2019-02-06T12:02:51.156Z,10.63
2019-02-06T12:05:19.980Z,10.93
2019-02-06T12:07:48.894Z,9.40
2019-02-06T12:10:18.258Z,9.40
2019-02-06T12:12:47.369Z,9.60
2019-02-06T12:15:17.756Z,10.97
2019-02-06T12:17:47.078Z,10.53
2019-02-06T12:20:18.237Z,9.17
2019-02-06T12:22:47.346Z,9.43
2019-02-06T12:25:16.954Z,9.50
2019-02-06T12:27:46.548Z,8.87
2019-02-06T12:30:21.956Z,9.70
2019-02-06T12:32:52.098Z,9.70
2019-02-06T12:35:21.952Z,8.60
2019-02-06T12:37:52.977Z,8.80
2019-02-06T12:40:22.482Z,8.80
2019-02-06T12:42:51.486Z,9.00
2019-02-06T12:45:20.709Z,8.80
2019-02-06T12:47:49.793Z,9.53
2019-02-06T12:50:19.854Z,9.57
2019-02-06T12:52:48.988Z,10.30
2019-02-06T12:55:21.676Z,10.37
2019-02-06T12:57:50.874Z,10.10
2019-02-06T13:00:22.526Z,10.40
2019-02-06T13:02:56.345Z,9.70
2019-02-06T13:05:23.678Z,10.87
2019-02-06T13:07:52.771Z,10.40
2019-02-06T13:10:32.868Z,10.10
2019-02-06T13:12:52.566Z,10.10
2019-02-06T13:15:21.639Z,9.97
2019-02-06T13:17:51.004Z,9.60
2019-02-06T13:20:22.006Z,10.77
2019-02-06T13:22:50.944Z,11.10
2019-02-06T13:25:19.962Z,9.80
2019-02-06T13:27:48.918Z,9.40
2019-02-06T13:30:24.133Z,11.10
2019-02-06T13:32:53.292Z,10.10
2019-02-06T13:35:22.456Z,10.43
2019-02-06T13:37:51.537Z,10.60
2019-02-06T13:40:21.758Z,10.60
2019-02-06T13:42:50.868Z,10.43
2019-02-06T13:45:25.279Z,10.70
2019-02-06T13:47:54.295Z,10.93
2019-02-06T13:50:23.443Z,9.80
2019-02-06T13:52:52.536Z,10.17
2019-02-06T13:55:21.472Z,10.80
2019-02-06T13:57:50.672Z,10.77
2019-02-06T14:00:24.352Z,11.23
2019-02-06T14:02:53.411Z,10.40
2019-02-06T14:05:25.422Z,11.70
2019-02-06T14:07:56.434Z,11.20
2019-02-06T14:10:26.035Z,12.23
2019-02-06T14:12:55.137Z,11.60
2019-02-06T14:15:25.227Z,10.93
2019-02-06T14:17:54.177Z,12.30
2019-02-06T14:20:23.270Z,12.60
2019-02-06T14:22:58.656Z,13.00
2019-02-06T14:25:59.565Z,12.37
2019-02-06T14:29:01.515Z,12.00
2019-02-06T14:32:07.875Z,12.70
2019-02-06T14:34:59.499Z,11.53
2019-02-06T14:37:59.081Z,12.70
2019-02-06T14:40:50.481Z,12.73
2019-02-06T14:43:34.619Z,12.27
2019-02-06T14:46:43.175Z,11.93
2019-02-06T14:49:47.567Z,13.00
2019-02-06T14:52:59.211Z,12.10
2019-02-06T14:56:08.557Z,11.70
2019-02-06T14:59:15.953Z,11.13
2019-02-06T15:02:10.936Z,11.90
2019-02-06T15:05:30.347Z,11.97
2019-02-06T15:08:23.739Z,11.87
2019-02-06T15:11:27.631Z,11.27
2019-02-06T15:14:40.573Z,11.43
2019-02-06T15:17:38.914Z,10.73
2019-02-06T15:20:54.320Z,11.63
2019-02-06T15:24:03.395Z,11.83
2019-02-06T15:27:25.385Z,11.80
2019-02-06T15:30:38.273Z,10.33
2019-02-06T15:33:37.015Z,10.13
2019-02-06T15:36:31.961Z,10.80
2019-02-06T15:39:25.844Z,10.30
2019-02-06T15:42:03.561Z,11.07
2019-02-06T15:44:45.169Z,10.13
2019-02-06T15:47:22.605Z,11.47
2019-02-06T15:50:49.343Z,10.57
2019-02-06T15:53:40.501Z,10.60
2019-02-06T15:56:50.126Z,11.53
2019-02-06T15:59:58.896Z,10.30
2019-02-06T16:03:05.224Z,10.77
2019-02-06T16:06:14.612Z,12.03
2019-02-06T16:08:57.289Z,10.20
2019-02-06T16:11:44.502Z,10.70
2019-02-06T16:14:41.592Z,10.93
2019-02-06T16:17:45.946Z,11.20
2019-02-06T16:20:40.157Z,11.67
2019-02-06T16:24:01.206Z,11.20
2019-02-06T16:27:04.063Z,11.07
2019-02-06T16:30:09.064Z,10.67
2019-02-06T16:33:28.838Z,11.83
2019-02-06T16:36:23.757Z,11.93
2019-02-06T16:39:02.666Z,12.67
2019-02-06T16:42:08.449Z,11.97
2019-02-06T16:45:03.156Z,12.17
2019-02-06T16:48:16.102Z,11.20
2019-02-06T16:50:53.177Z,11.90
2019-02-06T16:54:10.450Z,12.63
2019-02-06T16:57:33.606Z,10.73
2019-02-06T17:00:24.414Z,11.40
2019-02-06T17:03:27.897Z,12.80
2019-02-06T17:06:33.571Z,11.90
2019-02-06T17:09:55.923Z,12.73
2019-02-06T17:13:12.038Z,11.40
2019-02-06T17:15:54.711Z,12.07
2019-02-06T17:19:03.356Z,12.07
2019-02-06T17:22:19.867Z,11.23
2019-02-06T17:25:27.256Z,12.40
2019-02-06T17:28:28.112Z,12.60
2019-02-06T17:31:12.378Z,12.87
2019-02-06T17:34:25.696Z,12.80
2019-02-06T17:37:45.889Z,10.70
2019-02-06T17:40:45.991Z,12.40
2019-02-06T17:44:06.936Z,11.93
2019-02-06T17:47:00.990Z,12.00
2019-02-06T17:49:49.590Z,11.67
2019-02-06T17:52:58.347Z,11.97
2019-02-06T17:55:27.671Z,11.70
2019-02-06T17:58:01.733Z,12.37
2019-02-06T18:00:51.439Z,11.83
2019-02-06T18:03:20.539Z,12.93
2019-02-06T18:05:50.243Z,12.60
2019-02-06T18:08:19.243Z,12.80
2019-02-06T18:10:48.210Z,12.40
2019-02-06T18:13:17.700Z,11.40
2019-02-06T18:15:46.770Z,13.47
2019-02-06T18:18:15.876Z,13.03
2019-02-06T18:20:44.994Z,11.77
2019-02-06T18:23:13.814Z,12.60
2019-02-06T18:25:43.512Z,11.83
2019-02-06T18:28:12.457Z,11.57
2019-02-06T18:30:41.392Z,12.23
2019-02-06T18:33:10.489Z,11.77
2019-02-06T18:35:39.942Z,11.33
2019-02-06T18:38:09.176Z,11.97
2019-02-06T18:40:40.604Z,11.20
2019-02-06T18:43:09.588Z,12.10
2019-02-06T18:45:38.560Z,10.80
2019-02-06T18:48:08.742Z,11.90
2019-02-06T18:50:38.307Z,11.57
2019-02-06T18:53:07.740Z,11.53
2019-02-06T18:55:37.105Z,11.03
2019-02-06T18:58:07.348Z,11.67
2019-02-06T19:00:37.009Z,11.70
2019-02-06T19:03:18.260Z,10.43
2019-02-06T19:05:47.449Z,12.90
2019-02-06T19:08:20.621Z,11.97
2019-02-06T19:10:50.198Z,10.90
2019-02-06T19:13:19.338Z,11.50
2019-02-06T19:15:56.197Z,10.03
2019-02-06T19:18:18.776Z,10.63
2019-02-06T19:20:47.628Z,10.53
2019-02-06T19:23:16.545Z,11.00
2019-02-06T19:25:45.587Z,11.78
2019-02-06T19:28:14.803Z,11.43
2019-02-06T19:30:43.827Z,11.03
2019-02-06T19:33:12.813Z,10.87
2019-02-06T19:35:41.878Z,10.70
2019-02-06T19:38:10.975Z,11.10
2019-02-06T19:40:40.097Z,10.60
2019-02-06T19:43:09.051Z,11.67
2019-02-06T19:45:38.325Z,11.10
2019-02-06T19:48:15.833Z,11.70
2019-02-06T19:50:39.382Z,11.43
2019-02-06T19:53:08.455Z,12.27
2019-02-06T19:55:37.542Z,11.50
2019-02-06T19:58:06.781Z,11.17
2019-02-06T20:00:35.866Z,11.40
2019-02-06T20:03:08.089Z,11.43
2019-02-06T20:05:36.461Z,10.90
2019-02-06T20:08:06.178Z,10.60
2019-02-06T20:10:37.460Z,9.03
2019-02-06T20:13:11.258Z,11.00
2019-02-06T20:15:37.138Z,11.20
2019-02-06T20:18:06.329Z,8.93
2019-02-06T20:20:35.564Z,10.47
2019-02-06T20:23:04.677Z,9.40
2019-02-06T20:25:33.789Z,10.73
2019-02-06T20:28:02.791Z,11.30
2019-02-06T20:30:31.868Z,10.97
2019-02-06T20:33:01.103Z,10.07
2019-02-06T20:35:30.289Z,10.43
2019-02-06T20:37:59.607Z,10.87
2019-02-06T20:40:33.359Z,10.20
2019-02-06T20:43:02.615Z,9.63
2019-02-06T20:45:31.925Z,10.27
2019-02-06T20:48:00.921Z,10.43
2019-02-06T20:50:31.205Z,10.83
2019-02-06T20:53:00.513Z,10.53
2019-02-06T20:55:29.515Z,10.30
2019-02-06T20:57:58.437Z,10.20
2019-02-06T21:00:29.509Z,9.47
2019-02-06T21:02:58.581Z,9.60
2019-02-06T21:05:27.695Z,10.87
2019-02-06T21:07:56.718Z,9.10
2019-02-06T21:10:27.087Z,9.70
2019-02-06T21:12:56.214Z,9.63
2019-02-06T21:15:25.240Z,9.63
2019-02-06T21:17:55.302Z,8.77
2019-02-06T21:20:24.435Z,9.90
2019-02-06T21:22:53.511Z,9.90
2019-02-06T21:25:22.683Z,8.83
2019-02-06T21:27:51.915Z,9.70
2019-02-06T21:30:31.590Z,9.67
2019-02-06T21:33:00.521Z,9.90
2019-02-06T21:35:29.554Z,9.90
2019-02-06T21:37:58.921Z,10.30
2019-02-06T21:40:29.642Z,9.70
2019-02-06T21:42:58.595Z,10.57
2019-02-06T21:45:27.556Z,9.93
2019-02-06T21:47:56.536Z,9.63
2019-02-06T21:50:25.696Z,9.70
2019-02-06T21:52:55.077Z,11.13
2019-02-06T21:55:24.032Z,9.50
2019-02-06T21:57:53.036Z,9.73
2019-02-06T22:00:27.082Z,10.73
2019-02-06T22:02:56.186Z,10.17
2019-02-06T22:05:25.623Z,9.60
2019-02-06T22:07:54.701Z,9.13
2019-02-06T22:10:23.844Z,10.07
2019-02-06T22:12:53.039Z,10.60
2019-02-06T22:15:24.283Z,10.20
2019-02-06T22:17:53.341Z,10.47
2019-02-06T22:20:22.328Z,9.77
2019-02-06T22:22:51.404Z,10.27
2019-02-06T22:25:20.605Z,9.90
2019-02-06T22:27:50.683Z,9.83
2019-02-06T22:30:21.832Z,9.20
2019-02-06T22:32:50.901Z,10.23
2019-02-06T22:35:19.993Z,9.50
2019-02-06T22:37:48.982Z,9.80
2019-02-06T22:40:19.474Z,9.70
2019-02-06T22:42:48.550Z,10.17
2019-02-06T22:45:25.411Z,9.90
2019-02-06T22:47:54.680Z,9.07
2019-02-06T22:50:25.506Z,9.90
2019-02-06T22:52:54.814Z,10.53
2019-02-06T22:55:23.940Z,9.90
2019-02-06T22:57:52.815Z,9.43
2019-02-06T23:00:47.211Z,10.40
2019-02-06T23:03:19.491Z,9.37
2019-02-06T23:05:48.454Z,10.43
2019-02-06T23:08:17.486Z,10.90
2019-02-06T23:10:46.348Z,9.40
2019-02-06T23:13:15.586Z,9.90
2019-02-06T23:15:44.547Z,9.80
2019-02-06T23:18:13.636Z,9.90
2019-02-06T23:20:42.696Z,8.60
2019-02-06T23:23:11.692Z,8.93
2019-02-06T23:25:43.022Z,10.40
2019-02-06T23:28:11.309Z,10.00
2019-02-06T23:30:40.297Z,9.63
2019-02-06T23:33:09.367Z,9.87
2019-02-06T23:35:38.361Z,8.10
2019-02-06T23:38:07.277Z,9.60
2019-02-06T23:40:36.173Z,9.20
2019-02-06T23:43:05.549Z,9.00
2019-02-06T23:45:34.533Z,10.27
2019-02-06T23:48:03.405Z,8.97
2019-02-06T23:50:32.255Z,9.90
2019-02-06T23:53:01.107Z,9.53
2019-02-06T23:55:30.003Z,9.67
2019-02-06T23:57:59.269Z,10.07
